Beaverton, Oregon
Current Conditions -  °F | °C
As of 8:53 AM on Friday 28 Nov 2014 (Local Time) from KHIO Reporting Station
Overcast Overcast  
Wind Chill: 53°   Ceiling: 900
Heat Index: 53°   Visibility: 10mi
Dew Point: 51°   Wind: 13mph
Humidity: 93%   Direction: 170°S
Pressure: 29.6"   Gusts: NA
Location:  45.49°N, 122.79°W
Report Text: KHIO 281653Z 17011KT 10SM OVC009 12/11 A2960 RMK AO2 RAB26E31 SLP023 P0000 T01170106
Loading
Personal Weather Stations






























Interactive Weather Map New forecast layout! Learn more

10-Day Weather Forecast

Advertisements
Track Severe Weather on mobile